createdAt,value
2023-03-06T00:01:00.540Z,83
2023-03-06T00:03:03.782Z,83
2023-03-06T00:05:04.761Z,83
2023-03-06T00:07:03.353Z,83
2023-03-06T00:09:02.213Z,83
2023-03-06T00:11:00.131Z,84
2023-03-06T00:13:00.713Z,84
2023-03-06T00:14:59.809Z,83
2023-03-06T00:17:02.905Z,83
2023-03-06T00:19:00.765Z,83
2023-03-06T00:21:00.853Z,83
2023-03-06T00:23:01.351Z,83
2023-03-06T00:25:05.933Z,83
2023-03-06T00:27:03.206Z,83
2023-03-06T00:29:01.970Z,83
2023-03-06T00:31:04.369Z,83
2023-03-06T00:33:00.545Z,83
2023-03-06T00:35:01.145Z,84
2023-03-06T00:37:03.379Z,83
2023-03-06T00:39:00.681Z,84
2023-03-06T00:41:00.608Z,83
2023-03-06T00:43:06.363Z,83
2023-03-06T00:45:00.034Z,83
2023-03-06T00:47:00.573Z,84
2023-03-06T00:49:05.527Z,84
2023-03-06T00:51:00.604Z,84
2023-03-06T00:52:58.826Z,84
2023-03-06T00:57:01.014Z,83
2023-03-06T00:59:01.760Z,83
2023-03-06T01:01:00.624Z,83
2023-03-06T01:03:06.014Z,83
2023-03-06T01:05:04.854Z,84
2023-03-06T01:07:00.382Z,84
2023-03-06T01:09:00.569Z,84
2023-03-06T01:11:00.094Z,84
2023-03-06T01:13:03.928Z,84
2023-03-06T01:14:59.572Z,84
2023-03-06T01:19:02.320Z,84
2023-03-06T01:21:04.999Z,84
2023-03-06T01:23:00.972Z,84
2023-03-06T01:25:03.467Z,84
2023-03-06T01:26:57.150Z,84
2023-03-06T01:29:01.996Z,84
2023-03-06T01:31:03.729Z,84
2023-03-06T01:33:04.661Z,84
2023-03-06T01:35:06.923Z,84
2023-03-06T01:37:01.964Z,84
2023-03-06T01:39:03.620Z,84
2023-03-06T01:41:03.826Z,84
2023-03-06T01:43:05.260Z,84
2023-03-06T01:45:04.317Z,84
2023-03-06T01:47:05.047Z,84
2023-03-06T01:49:04.794Z,84
2023-03-06T01:51:00.654Z,84
2023-03-06T01:53:05.797Z,84
2023-03-06T01:55:00.526Z,84
2023-03-06T01:57:05.917Z,84
2023-03-06T01:59:00.912Z,84
2023-03-06T02:01:04.910Z,84
2023-03-06T02:03:05.537Z,84
2023-03-06T02:05:06.932Z,84
2023-03-06T02:06:57.174Z,84
2023-03-06T02:09:00.687Z,84
2023-03-06T02:11:06.081Z,84
2023-03-06T02:13:02.336Z,84
2023-03-06T02:15:02.243Z,84
2023-03-06T02:17:01.043Z,84
2023-03-06T02:19:03.694Z,84
2023-03-06T02:20:59.995Z,84
2023-03-06T02:23:05.620Z,84
2023-03-06T02:25:07.033Z,84
2023-03-06T02:27:03.845Z,84
2023-03-06T02:29:00.606Z,84
2023-03-06T02:31:04.563Z,84
2023-03-06T02:33:05.128Z,84
2023-03-06T02:35:00.147Z,84
2023-03-06T02:37:00.600Z,84
2023-03-06T02:39:05.658Z,84
2023-03-06T02:41:00.725Z,84
2023-03-06T02:43:02.118Z,84
2023-03-06T02:45:03.701Z,84
2023-03-06T02:47:00.786Z,84
2023-03-06T02:51:05.704Z,84
2023-03-06T02:53:06.512Z,84
2023-03-06T02:55:01.546Z,84
2023-03-06T02:56:59.537Z,84
2023-03-06T02:59:00.449Z,84
2023-03-06T03:01:03.801Z,84
2023-03-06T03:03:03.069Z,84
2023-03-06T03:05:06.631Z,84
2023-03-06T03:07:00.439Z,84
2023-03-06T03:09:02.370Z,84
2023-03-06T03:11:03.888Z,84
2023-03-06T03:13:00.385Z,84
2023-03-06T03:15:04.202Z,84
2023-03-06T03:17:01.910Z,84
2023-03-06T03:20:59.527Z,84
2023-03-06T03:23:04.091Z,84
2023-03-06T03:25:03.826Z,84
2023-03-06T03:26:59.661Z,84
2023-03-06T03:29:00.936Z,84
2023-03-06T03:31:00.528Z,84
2023-03-06T03:33:00.564Z,84
2023-03-06T03:35:05.132Z,84
2023-03-06T03:37:01.106Z,84
2023-03-06T03:39:00.678Z,84
2023-03-06T03:41:03.787Z,84
2023-03-06T03:43:00.050Z,84
2023-03-06T03:45:02.529Z,83
2023-03-06T03:47:01.563Z,84
2023-03-06T03:49:01.097Z,84
2023-03-06T03:51:00.722Z,84
2023-03-06T03:53:05.282Z,84
2023-03-06T03:55:02.822Z,84
2023-03-06T03:57:04.628Z,84
2023-03-06T03:59:04.030Z,84
2023-03-06T04:01:03.768Z,84
2023-03-06T04:03:01.589Z,84
2023-03-06T04:05:00.222Z,84
2023-03-06T04:07:06.677Z,84
2023-03-06T04:09:05.811Z,83
2023-03-06T04:11:00.872Z,83
2023-03-06T04:13:02.266Z,83
2023-03-06T04:15:03.458Z,83
2023-03-06T04:16:59.256Z,83
2023-03-06T04:19:00.953Z,83
2023-03-06T04:21:01.144Z,83
2023-03-06T04:23:04.767Z,84
2023-03-06T04:25:03.400Z,84
2023-03-06T04:27:00.818Z,84
2023-03-06T04:29:00.937Z,84
2023-03-06T04:31:01.244Z,84
2023-03-06T04:33:03.090Z,84
2023-03-06T04:35:00.864Z,84
2023-03-06T04:37:00.960Z,83
2023-03-06T04:41:02.371Z,83
2023-03-06T04:43:03.225Z,84
2023-03-06T04:45:01.194Z,84
2023-03-06T04:47:00.724Z,84
2023-03-06T04:49:06.042Z,84
2023-03-06T04:51:02.500Z,84
2023-03-06T04:53:00.065Z,84
2023-03-06T04:54:59.872Z,84
2023-03-06T04:57:03.784Z,84
2023-03-06T04:59:03.858Z,84
2023-03-06T05:00:59.870Z,84
2023-03-06T05:03:00.122Z,84
2023-03-06T05:05:01.871Z,84
2023-03-06T05:09:03.490Z,84
2023-03-06T05:11:03.763Z,84
2023-03-06T05:13:03.847Z,84
2023-03-06T05:14:59.820Z,84
2023-03-06T05:17:05.754Z,84
2023-03-06T05:18:59.236Z,84
2023-03-06T05:21:00.485Z,84
2023-03-06T05:23:01.203Z,83
2023-03-06T05:25:03.898Z,84
2023-03-06T05:29:02.167Z,84
2023-03-06T05:31:03.259Z,84
2023-03-06T05:32:59.982Z,84
2023-03-06T05:35:01.871Z,84
2023-03-06T05:37:00.677Z,84
2023-03-06T05:39:01.114Z,84
2023-03-06T05:41:04.152Z,84
2023-03-06T05:43:00.213Z,84
2023-03-06T05:45:00.109Z,84
2023-03-06T05:47:05.282Z,84
2023-03-06T05:49:00.758Z,84
2023-03-06T05:51:02.374Z,83
2023-03-06T05:52:56.754Z,83
2023-03-06T05:55:00.477Z,83
2023-03-06T05:56:59.796Z,83
2023-03-06T05:59:00.857Z,83
2023-03-06T06:01:00.588Z,83
2023-03-06T06:02:59.684Z,83
2023-03-06T06:05:08.519Z,83
2023-03-06T06:07:00.937Z,83
2023-03-06T06:09:00.572Z,83
2023-03-06T06:11:01.900Z,83
2023-03-06T06:13:04.169Z,83
2023-03-06T06:15:00.652Z,83
2023-03-06T06:17:00.147Z,83
2023-03-06T06:18:59.644Z,83
2023-03-06T06:21:00.705Z,83
2023-03-06T06:23:03.959Z,84
2023-03-06T06:25:00.714Z,84
2023-03-06T06:27:03.919Z,84
2023-03-06T06:29:00.201Z,84
2023-03-06T06:30:57.268Z,84
2023-03-06T06:33:00.784Z,84
2023-03-06T06:35:00.690Z,84
2023-03-06T06:37:03.832Z,84
2023-03-06T06:39:02.832Z,84
2023-03-06T06:41:30.961Z,84
2023-03-06T06:43:03.105Z,84
2023-03-06T06:45:06.470Z,84
2023-03-06T06:47:23.875Z,84
2023-03-06T06:49:06.992Z,84
2023-03-06T06:51:04.723Z,84
2023-03-06T06:53:01.839Z,84
2023-03-06T06:55:02.119Z,84
2023-03-06T06:57:00.601Z,84
2023-03-06T06:59:03.869Z,84
2023-03-06T07:01:00.771Z,84
2023-03-06T07:02:59.628Z,84
2023-03-06T07:05:06.049Z,84
2023-03-06T07:07:03.413Z,84
2023-03-06T07:09:00.661Z,83
2023-03-06T07:11:03.725Z,83
2023-03-06T07:13:00.777Z,84
2023-03-06T07:15:03.446Z,84
2023-03-06T07:17:03.929Z,84
2023-03-06T07:18:59.447Z,83
2023-03-06T07:21:01.453Z,83
2023-03-06T07:23:00.718Z,84
2023-03-06T07:25:02.818Z,83
2023-03-06T07:26:59.752Z,83
2023-03-06T07:30:26.104Z,83
2023-03-06T07:40:24.639Z,83
2023-03-06T07:42:24.690Z,83
2023-03-06T07:44:27.163Z,83
2023-03-06T07:46:25.356Z,83
2023-03-06T07:48:21.903Z,83
2023-03-06T07:50:26.404Z,84
2023-03-06T07:52:25.250Z,83
2023-03-06T07:54:25.177Z,83
2023-03-06T07:58:28.014Z,83
2023-03-06T08:00:24.662Z,83
2023-03-06T08:02:27.833Z,82
2023-03-06T08:04:29.102Z,83
2023-03-06T08:06:25.810Z,83
2023-03-06T08:08:31.112Z,82
2023-03-06T08:10:24.816Z,83
2023-03-06T08:12:21.894Z,83
2023-03-06T08:14:27.675Z,83
2023-03-06T08:16:24.764Z,83
2023-03-06T08:18:24.656Z,83
2023-03-06T08:22:25.998Z,83
2023-03-06T08:24:25.046Z,83
2023-03-06T08:28:25.710Z,83
2023-03-06T08:30:30.806Z,83
2023-03-06T08:34:23.477Z,82
2023-03-06T08:36:24.724Z,82
2023-03-06T08:40:24.157Z,82
2023-03-06T08:42:24.848Z,82
2023-03-06T08:44:27.280Z,82
2023-03-06T08:46:24.909Z,82
2023-03-06T08:48:27.604Z,82
2023-03-06T08:54:25.232Z,82
2023-03-06T08:56:27.978Z,82
2023-03-06T08:58:24.956Z,82
2023-03-06T09:00:26.259Z,82
2023-03-06T09:02:27.345Z,82
2023-03-06T09:04:25.971Z,82
2023-03-06T09:06:27.794Z,82
2023-03-06T09:08:27.951Z,82
2023-03-06T09:10:27.335Z,81
2023-03-06T09:12:24.800Z,81
2023-03-06T09:14:27.388Z,81
2023-03-06T09:16:23.658Z,81
2023-03-06T09:18:24.871Z,81
2023-03-06T09:20:27.415Z,81
2023-03-06T09:22:23.122Z,81
2023-03-06T09:24:27.304Z,81
2023-03-06T09:28:28.134Z,80
2023-03-06T09:30:24.812Z,80
2023-03-06T09:32:27.575Z,80
2023-03-06T09:34:25.672Z,80
2023-03-06T09:36:24.917Z,79
2023-03-06T09:38:27.584Z,79
2023-03-06T09:40:27.364Z,79
2023-03-06T09:42:22.249Z,79
2023-03-06T09:46:24.989Z,78
2023-03-06T09:48:26.107Z,79
2023-03-06T09:50:27.335Z,79
2023-03-06T09:52:25.390Z,78
2023-03-06T09:54:22.750Z,78
2023-03-06T09:56:27.297Z,78
2023-03-06T09:58:26.108Z,78
2023-03-06T10:00:25.335Z,78
2023-03-06T10:02:28.138Z,78
2023-03-06T10:04:28.096Z,78
2023-03-06T10:06:25.548Z,78
2023-03-06T10:08:26.873Z,78
2023-03-06T10:10:26.955Z,77
2023-03-06T10:12:25.071Z,76
2023-03-06T10:14:27.301Z,77
2023-03-06T10:16:24.250Z,75
2023-03-06T10:18:24.850Z,75
2023-03-06T10:20:26.763Z,75
2023-03-06T10:22:23.429Z,73
2023-03-06T10:24:24.810Z,73
2023-03-06T10:28:27.154Z,73
2023-03-06T10:30:23.497Z,73
2023-03-06T10:32:30.527Z,73
2023-03-06T10:34:28.957Z,73
2023-03-06T10:36:24.798Z,71
2023-03-06T10:40:22.968Z,72
2023-03-06T10:42:26.218Z,71
2023-03-06T10:44:27.576Z,70
2023-03-06T10:46:24.913Z,70
2023-03-06T10:48:29.183Z,69
2023-03-06T10:50:27.269Z,70
2023-03-06T10:52:27.904Z,70
2023-03-06T10:54:27.534Z,69
2023-03-06T10:56:26.589Z,69
2023-03-06T10:58:26.100Z,69
2023-03-06T11:00:28.658Z,69
2023-03-06T11:02:28.306Z,68
2023-03-06T11:04:26.742Z,68
2023-03-06T11:06:24.804Z,69
2023-03-06T11:08:27.974Z,68
2023-03-06T11:10:25.055Z,68
2023-03-06T11:12:25.350Z,69
2023-03-06T11:16:25.914Z,70
2023-03-06T11:18:25.683Z,68
2023-03-06T11:20:29.185Z,68
2023-03-06T11:22:28.363Z,69
2023-03-06T11:24:24.826Z,68
2023-03-06T11:28:23.648Z,65
2023-03-06T11:30:26.733Z,66
2023-03-06T11:32:28.072Z,65
2023-03-06T11:34:26.042Z,65
2023-03-06T11:36:24.837Z,65
2023-03-06T11:38:27.314Z,65
2023-03-06T11:40:21.834Z,64
2023-03-06T11:42:24.917Z,66
2023-03-06T11:46:26.993Z,63
2023-03-06T11:48:24.345Z,63
2023-03-06T11:52:26.370Z,63
2023-03-06T11:54:25.156Z,66
2023-03-06T11:56:28.391Z,68
2023-03-06T11:58:25.875Z,67
2023-03-06T12:00:25.732Z,65
2023-03-06T12:02:27.552Z,65
2023-03-06T12:04:24.916Z,65
2023-03-06T12:06:28.013Z,66
2023-03-06T12:08:27.436Z,64
2023-03-06T12:10:25.088Z,66
2023-03-06T12:12:24.908Z,66
2023-03-06T12:14:27.570Z,64
2023-03-06T12:16:25.413Z,64
2023-03-06T12:18:24.861Z,65
2023-03-06T12:20:27.346Z,66
2023-03-06T12:22:26.210Z,64
2023-03-06T12:24:24.953Z,65
2023-03-06T12:28:25.989Z,64
2023-03-06T12:30:23.564Z,63
2023-03-06T12:32:27.427Z,66
2023-03-06T12:34:24.631Z,65
2023-03-06T12:36:24.922Z,64
2023-03-06T12:40:23.139Z,63
2023-03-06T12:42:24.930Z,64
2023-03-06T12:48:28.126Z,66
2023-03-06T12:50:26.851Z,69
2023-03-06T12:52:30.142Z,64
2023-03-06T12:54:24.930Z,64
2023-03-06T12:56:28.218Z,64
2023-03-06T12:58:24.963Z,66
2023-03-06T13:00:25.433Z,68
2023-03-06T13:02:27.496Z,67
2023-03-06T13:04:27.724Z,65
2023-03-06T13:06:24.543Z,64
2023-03-06T13:10:24.893Z,66
2023-03-06T13:12:24.997Z,69
2023-03-06T13:14:28.051Z,65
2023-03-06T13:16:25.062Z,67
2023-03-06T13:18:26.844Z,70
2023-03-06T13:20:27.575Z,65
2023-03-06T13:22:24.931Z,62
2023-03-06T13:24:24.917Z,64
2023-03-06T13:26:27.600Z,62
2023-03-06T13:28:23.692Z,62
2023-03-06T13:30:28.114Z,62
2023-03-06T13:34:25.040Z,65
2023-03-06T13:36:25.070Z,65
2023-03-06T13:38:27.115Z,64
2023-03-06T13:40:26.761Z,67
2023-03-06T13:42:24.874Z,68
2023-03-06T13:44:25.905Z,65
2023-03-06T13:46:25.283Z,66
2023-03-06T13:48:43.429Z,64
2023-03-06T13:52:26.039Z,63
2023-03-06T13:54:26.117Z,64
2023-03-06T13:57:08.149Z,67
2023-03-06T13:59:08.588Z,65
2023-03-06T14:01:04.782Z,66
2023-03-06T14:03:04.173Z,67
2023-03-06T14:05:04.887Z,71
2023-03-06T14:07:05.607Z,74
2023-03-06T14:09:06.387Z,76
2023-03-06T14:11:05.145Z,78
2023-03-06T14:13:06.773Z,80
2023-03-06T14:15:05.488Z,81
2023-03-06T14:17:07.112Z,81
2023-03-06T14:19:04.806Z,81
2023-03-06T14:21:03.741Z,80
2023-03-06T14:23:05.505Z,81
2023-03-06T14:25:07.146Z,81
2023-03-06T14:27:05.205Z,81
2023-03-06T14:29:03.578Z,81
2023-03-06T14:31:04.421Z,80
2023-03-06T14:33:04.084Z,80
2023-03-06T14:35:04.473Z,80
2023-03-06T14:37:07.245Z,80
2023-03-06T14:39:03.529Z,80
2023-03-06T14:41:04.098Z,80
2023-03-06T14:43:05.495Z,79
2023-03-06T14:45:01.243Z,79
2023-03-06T14:47:06.171Z,79
2023-03-06T14:49:03.603Z,79
2023-03-06T14:51:04.365Z,78
2023-03-06T14:53:07.580Z,79
2023-03-06T14:55:06.163Z,78
2023-03-06T14:59:04.503Z,78
2023-03-06T15:01:04.662Z,78
2023-03-06T15:03:08.556Z,78
2023-03-06T15:05:08.156Z,78
2023-03-06T15:07:07.457Z,77
2023-03-06T15:09:07.251Z,78
2023-03-06T15:11:07.351Z,77
2023-03-06T15:13:09.141Z,77
2023-03-06T15:15:04.486Z,76
2023-03-06T15:17:04.299Z,76
2023-03-06T15:19:08.515Z,76
2023-03-06T15:21:07.722Z,76
2023-03-06T15:23:04.504Z,77
2023-03-06T15:25:07.549Z,76
2023-03-06T15:27:05.536Z,76
2023-03-06T15:29:09.582Z,75
2023-03-06T15:31:08.129Z,76
2023-03-06T15:33:03.333Z,75
2023-03-06T15:35:02.246Z,75
2023-03-06T15:37:08.938Z,75
2023-03-06T15:39:05.253Z,76
2023-03-06T15:41:04.990Z,75
2023-03-06T15:43:05.567Z,74
2023-03-06T15:45:05.456Z,73
2023-03-06T15:47:09.369Z,75
2023-03-06T15:49:08.310Z,73
2023-03-06T15:51:06.000Z,73
2023-03-06T15:53:08.492Z,73
2023-03-06T15:55:06.785Z,72
2023-03-06T15:57:05.505Z,72
2023-03-06T15:59:06.982Z,72
2023-03-06T16:01:04.874Z,73
2023-03-06T16:03:02.187Z,74
2023-03-06T16:05:05.115Z,73
2023-03-06T16:07:06.141Z,74
2023-03-06T16:09:08.930Z,73
2023-03-06T16:11:08.589Z,73
2023-03-06T16:13:02.208Z,73
2023-03-06T16:15:05.547Z,74
2023-03-06T16:17:06.432Z,74
2023-03-06T16:19:09.419Z,76
2023-03-06T16:21:08.472Z,78
2023-03-06T16:23:05.505Z,75
2023-03-06T16:25:08.766Z,74
2023-03-06T16:27:05.678Z,74
2023-03-06T16:29:05.119Z,74
2023-03-06T16:31:02.604Z,74
2023-03-06T16:33:05.439Z,75
2023-03-06T16:35:07.000Z,74
2023-03-06T16:37:12.086Z,74
2023-03-06T16:39:05.320Z,75
2023-03-06T16:41:08.775Z,75
2023-03-06T16:43:08.383Z,74
2023-03-06T16:45:02.563Z,75
2023-03-06T16:47:08.058Z,75
2023-03-06T16:49:07.252Z,76
2023-03-06T16:51:05.963Z,77
2023-03-06T16:53:08.315Z,77
2023-03-06T16:55:07.198Z,77
2023-03-06T16:57:06.260Z,77
2023-03-06T16:59:06.952Z,77
2023-03-06T17:01:03.877Z,77
2023-03-06T17:03:09.070Z,77
2023-03-06T17:05:08.349Z,77
2023-03-06T17:07:08.153Z,77
2023-03-06T17:09:06.058Z,77
2023-03-06T17:11:06.159Z,77
2023-03-06T17:13:07.382Z,77
2023-03-06T17:15:09.291Z,77
2023-03-06T17:17:05.585Z,77
2023-03-06T17:19:03.831Z,78
2023-03-06T17:21:05.424Z,78
2023-03-06T17:23:08.098Z,78
2023-03-06T17:25:09.335Z,78
2023-03-06T17:27:08.083Z,78
2023-03-06T17:29:07.074Z,78
2023-03-06T17:31:05.998Z,78
2023-03-06T17:33:08.339Z,78
2023-03-06T17:35:09.252Z,78
2023-03-06T17:37:06.436Z,78
2023-03-06T17:39:05.841Z,78
2023-03-06T17:41:06.371Z,78
2023-03-06T17:43:10.287Z,78
2023-03-06T17:45:05.321Z,78
2023-03-06T17:47:09.660Z,78
2023-03-06T17:49:08.590Z,78
2023-03-06T17:51:06.401Z,78
2023-03-06T17:53:08.544Z,79
2023-03-06T17:55:09.653Z,79
2023-03-06T17:57:09.624Z,78
2023-03-06T17:59:05.754Z,78
2023-03-06T18:01:04.483Z,79
2023-03-06T18:03:06.102Z,79
2023-03-06T18:05:06.698Z,78
2023-03-06T18:07:10.302Z,78
2023-03-06T18:09:06.690Z,79
2023-03-06T18:11:06.699Z,79
2023-03-06T18:13:06.053Z,79
2023-03-06T18:15:09.208Z,79
2023-03-06T18:17:08.360Z,79
2023-03-06T18:19:06.339Z,79
2023-03-06T18:21:08.395Z,79
2023-03-06T18:23:07.617Z,79
2023-03-06T18:25:06.606Z,79
2023-03-06T18:27:08.682Z,79
2023-03-06T18:29:04.408Z,79
2023-03-06T18:31:08.846Z,79
2023-03-06T18:33:06.545Z,79
2023-03-06T18:35:13.607Z,79
2023-03-06T18:37:07.351Z,79
2023-03-06T18:39:08.883Z,79
2023-03-06T18:41:10.413Z,79
2023-03-06T18:43:07.523Z,79
2023-03-06T18:45:12.225Z,79
2023-03-06T18:47:10.816Z,79
2023-03-06T18:49:08.044Z,80
2023-03-06T18:51:10.832Z,79
2023-03-06T18:53:05.341Z,79
2023-03-06T18:55:07.019Z,79
2023-03-06T18:57:10.071Z,79
2023-03-06T18:59:10.424Z,79
2023-03-06T19:01:07.047Z,79
2023-03-06T19:03:11.642Z,79
2023-03-06T19:05:06.508Z,79
2023-03-06T19:09:07.476Z,79
2023-03-06T19:11:14.256Z,79
2023-03-06T19:13:07.632Z,79
2023-03-06T19:15:08.839Z,79
2023-03-06T19:17:04.452Z,80
2023-03-06T19:19:07.788Z,80
2023-03-06T19:21:11.592Z,80
2023-03-06T19:23:14.405Z,80
2023-03-06T19:25:08.881Z,79
2023-03-06T19:27:11.178Z,79
2023-03-06T19:29:09.003Z,79
2023-03-06T19:31:07.319Z,79
2023-03-06T19:33:07.889Z,79
2023-03-06T19:35:11.651Z,79
2023-03-06T19:37:07.950Z,79
2023-03-06T19:39:08.717Z,79
2023-03-06T19:41:08.774Z,80
2023-03-06T19:43:07.694Z,80
2023-03-06T19:45:07.621Z,80
2023-03-06T19:47:14.630Z,79
2023-03-06T19:49:11.397Z,80
2023-03-06T19:51:08.691Z,79
2023-03-06T19:53:08.398Z,78
2023-03-06T19:55:08.162Z,78
2023-03-06T19:57:09.068Z,78
2023-03-06T19:59:10.236Z,78
2023-03-06T20:01:08.063Z,79
2023-03-06T20:03:14.807Z,79
2023-03-06T20:05:11.616Z,79
2023-03-06T20:07:15.084Z,78
2023-03-06T20:09:08.259Z,78
2023-03-06T20:11:08.847Z,80
2023-03-06T20:13:09.017Z,79
2023-03-06T20:15:06.311Z,80
2023-03-06T20:17:15.408Z,80
2023-03-06T20:19:10.313Z,80
2023-03-06T20:21:11.746Z,80
2023-03-06T20:23:12.062Z,81
2023-03-06T20:25:08.914Z,79
2023-03-06T20:27:08.753Z,81
2023-03-06T20:29:11.645Z,81
2023-03-06T20:31:12.412Z,79
2023-03-06T20:33:16.343Z,79
2023-03-06T20:35:09.068Z,79
2023-03-06T20:37:15.602Z,79
2023-03-06T20:39:12.280Z,79
2023-03-06T20:41:09.124Z,79
2023-03-06T20:43:07.053Z,79
2023-03-06T20:45:10.356Z,79
2023-03-06T20:47:12.364Z,79
2023-03-06T20:49:11.194Z,79
2023-03-06T20:51:07.960Z,79
2023-03-06T20:53:12.328Z,79
2023-03-06T20:55:09.419Z,79
2023-03-06T20:57:06.177Z,79
2023-03-06T20:59:09.494Z,79
2023-03-06T21:01:07.023Z,79
2023-03-06T21:03:09.700Z,79
2023-03-06T21:05:09.726Z,79
2023-03-06T21:07:10.739Z,78
2023-03-06T21:09:13.548Z,78
2023-03-06T21:11:12.831Z,78
2023-03-06T21:13:13.433Z,78
2023-03-06T21:15:12.999Z,78
2023-03-06T21:17:09.819Z,78
2023-03-06T21:19:12.745Z,78
2023-03-06T21:21:11.228Z,78
2023-03-06T21:23:10.871Z,78
2023-03-06T21:25:13.558Z,78
2023-03-06T21:27:09.059Z,78
2023-03-06T21:29:07.721Z,79
2023-03-06T21:31:13.552Z,79
2023-03-06T21:33:11.204Z,79
2023-03-06T21:35:12.154Z,78
2023-03-06T21:37:12.344Z,78
2023-03-06T21:39:10.283Z,79
2023-03-06T21:41:10.494Z,78
2023-03-06T21:43:13.554Z,78
2023-03-06T21:45:10.853Z,79
2023-03-06T21:47:10.453Z,79
2023-03-06T21:51:11.346Z,79
2023-03-06T21:53:13.771Z,79
2023-03-06T21:55:17.226Z,79
2023-03-06T21:57:14.610Z,79
2023-03-06T21:59:12.844Z,79
2023-03-06T22:01:07.861Z,79
2023-03-06T22:03:11.869Z,78
2023-03-06T22:05:10.313Z,79
2023-03-06T22:07:10.545Z,79
2023-03-06T22:09:14.653Z,79
2023-03-06T22:11:10.613Z,79
2023-03-06T22:13:10.343Z,79
2023-03-06T22:15:10.849Z,79
2023-03-06T22:17:10.840Z,79
2023-03-06T22:19:11.069Z,79
2023-03-06T22:21:14.375Z,79
2023-03-06T22:23:13.203Z,79
2023-03-06T22:25:10.338Z,79
2023-03-06T22:27:10.461Z,79
2023-03-06T22:29:11.621Z,79
2023-03-06T22:31:15.179Z,79
2023-03-06T22:33:08.728Z,79
2023-03-06T22:35:11.324Z,79
2023-03-06T22:37:11.333Z,79
2023-03-06T22:39:10.166Z,79
2023-03-06T22:41:11.852Z,79
2023-03-06T22:43:10.549Z,79
2023-03-06T22:45:13.516Z,79
2023-03-06T22:47:10.459Z,79
2023-03-06T22:49:07.222Z,79
2023-03-06T22:51:11.326Z,79
2023-03-06T22:53:13.454Z,79
2023-03-06T22:55:13.668Z,79
2023-03-06T22:57:10.927Z,79
2023-03-06T22:59:10.899Z,79
2023-03-06T23:01:10.533Z,79
2023-03-06T23:03:13.297Z,80
2023-03-06T23:05:10.336Z,79
2023-03-06T23:07:12.669Z,80
2023-03-06T23:09:11.443Z,80
2023-03-06T23:11:13.137Z,79
2023-03-06T23:13:11.708Z,80
2023-03-06T23:15:08.998Z,80
2023-03-06T23:17:10.742Z,80
2023-03-06T23:19:11.083Z,80
2023-03-06T23:21:11.827Z,80
2023-03-06T23:23:13.289Z,79
2023-03-06T23:25:11.574Z,79
2023-03-06T23:29:10.660Z,79
2023-03-06T23:31:11.180Z,79
2023-03-06T23:33:12.586Z,79
2023-03-06T23:35:57.985Z,79
2023-03-06T23:39:57.470Z,79
2023-03-06T23:42:02.210Z,79
2023-03-06T23:44:02.823Z,79
2023-03-06T23:45:57.097Z,79
2023-03-06T23:47:57.297Z,79
2023-03-06T23:51:53.935Z,79
2023-03-06T23:54:00.421Z,79
2023-03-06T23:56:03.096Z,79
2023-03-06T23:58:00.325Z,79
2023-03-06T23:59:58.376Z,79
